sensor_id;sensor_type;location;lat;lon;timestamp;pressure;altitude;pressure_sealevel;temperature;humidity
34961;BME280;30789;52.030;7.110;2024-03-07T00:00:15;101738.81;;;3.85;100.00
34961;BME280;30789;52.030;7.110;2024-03-07T00:02:43;101743.00;;;3.91;100.00
34961;BME280;30789;52.030;7.110;2024-03-07T00:05:10;101743.78;;;3.91;100.00
34961;BME280;30789;52.030;7.110;2024-03-07T00:07:38;101750.72;;;3.97;100.00
34961;BME280;30789;52.030;7.110;2024-03-07T00:10:07;101745.25;;;3.97;100.00
34961;BME280;30789;52.030;7.110;2024-03-07T00:12:35;101749.44;;;4.03;100.00
34961;BME280;30789;52.030;7.110;2024-03-07T00:15:01;101743.84;;;4.00;100.00
34961;BME280;30789;52.030;7.110;2024-03-07T00:17:28;101738.72;;;4.07;100.00
34961;BME280;30789;52.030;7.110;2024-03-07T00:19:55;101749.53;;;4.20;100.00
34961;BME280;30789;52.030;7.110;2024-03-07T00:22:22;101752.25;;;4.20;100.00
34961;BME280;30789;52.030;7.110;2024-03-07T00:24:49;101750.97;;;4.18;100.00
34961;BME280;30789;52.030;7.110;2024-03-07T00:27:17;101751.47;;;4.20;100.00
34961;BME280;30789;52.030;7.110;2024-03-07T00:29:45;101748.56;;;4.16;100.00
34961;BME280;30789;52.030;7.110;2024-03-07T00:32:18;101757.38;;;4.22;100.00
34961;BME280;30789;52.030;7.110;2024-03-07T00:34:44;101746.97;;;4.24;100.00
34961;BME280;30789;52.030;7.110;2024-03-07T00:37:11;101755.50;;;4.31;100.00
34961;BME280;30789;52.030;7.110;2024-03-07T00:39:38;101753.44;;;4.36;100.00
34961;BME280;30789;52.030;7.110;2024-03-07T00:42:05;101745.91;;;4.42;100.00
34961;BME280;30789;52.030;7.110;2024-03-07T00:44:33;101746.06;;;4.45;100.00
34961;BME280;30789;52.030;7.110;2024-03-07T00:47:00;101752.34;;;4.46;100.00
34961;BME280;30789;52.030;7.110;2024-03-07T00:49:28;101753.00;;;4.51;100.00
34961;BME280;30789;52.030;7.110;2024-03-07T00:51:55;101750.75;;;4.53;100.00
34961;BME280;30789;52.030;7.110;2024-03-07T00:54:22;101753.03;;;4.60;100.00
34961;BME280;30789;52.030;7.110;2024-03-07T00:56:49;101757.53;;;4.64;100.00
34961;BME280;30789;52.030;7.110;2024-03-07T00:59:15;101746.59;;;4.64;100.00
34961;BME280;30789;52.030;7.110;2024-03-07T01:01:44;101752.06;;;4.64;100.00
34961;BME280;30789;52.030;7.110;2024-03-07T01:04:10;101746.94;;;4.63;100.00
34961;BME280;30789;52.030;7.110;2024-03-07T01:06:37;101751.06;;;4.60;100.00
34961;BME280;30789;52.030;7.110;2024-03-07T01:09:06;101757.34;;;4.69;100.00
34961;BME280;30789;52.030;7.110;2024-03-07T01:11:39;101751.44;;;4.67;100.00
34961;BME280;30789;52.030;7.110;2024-03-07T01:14:05;101742.75;;;4.65;100.00
34961;BME280;30789;52.030;7.110;2024-03-07T01:16:32;101743.03;;;4.55;100.00
34961;BME280;30789;52.030;7.110;2024-03-07T01:19:01;101737.56;;;4.55;100.00
34961;BME280;30789;52.030;7.110;2024-03-07T01:21:30;101742.72;;;4.57;100.00
34961;BME280;30789;52.030;7.110;2024-03-07T01:23:56;101739.84;;;4.53;100.00
34961;BME280;30789;52.030;7.110;2024-03-07T01:26:24;101738.53;;;4.51;100.00
34961;BME280;30789;52.030;7.110;2024-03-07T01:28:51;101740.16;;;4.52;100.00
34961;BME280;30789;52.030;7.110;2024-03-07T01:31:18;101737.44;;;4.52;100.00
34961;BME280;30789;52.030;7.110;2024-03-07T01:33:44;101736.94;;;4.50;100.00
34961;BME280;30789;52.030;7.110;2024-03-07T01:36:12;101742.72;;;4.48;100.00
34961;BME280;30789;52.030;7.110;2024-03-07T01:38:39;101737.25;;;4.40;100.00
34961;BME280;30789;52.030;7.110;2024-03-07T01:41:06;101743.47;;;4.40;100.00
34961;BME280;30789;52.030;7.110;2024-03-07T01:43:33;101735.78;;;4.34;100.00
34961;BME280;30789;52.030;7.110;2024-03-07T01:45:59;101738.34;;;4.39;100.00
34961;BME280;30789;52.030;7.110;2024-03-07T01:48:28;101736.56;;;4.34;100.00
34961;BME280;30789;52.030;7.110;2024-03-07T01:50:55;101733.84;;;4.34;100.00
34961;BME280;30789;52.030;7.110;2024-03-07T01:53:24;101734.50;;;4.40;100.00
34961;BME280;30789;52.030;7.110;2024-03-07T01:55:51;101740.28;;;4.38;100.00
34961;BME280;30789;52.030;7.110;2024-03-07T01:58:20;101729.38;;;4.38;100.00
34961;BME280;30789;52.030;7.110;2024-03-07T02:00:47;101736.88;;;4.33;100.00
34961;BME280;30789;52.030;7.110;2024-03-07T02:03:14;101726.97;;;4.37;100.00
34961;BME280;30789;52.030;7.110;2024-03-07T02:05:41;101719.41;;;4.34;100.00
34961;BME280;30789;52.030;7.110;2024-03-07T02:08:08;101726.28;;;4.31;100.00
34961;BME280;30789;52.030;7.110;2024-03-07T02:10:36;101725.97;;;4.33;100.00
34961;BME280;30789;52.030;7.110;2024-03-07T02:13:03;101721.47;;;4.28;100.00
34961;BME280;30789;52.030;7.110;2024-03-07T02:15:30;101722.41;;;4.24;99.46
34961;BME280;30789;52.030;7.110;2024-03-07T02:17:58;101724.19;;;4.28;99.85
34961;BME280;30789;52.030;7.110;2024-03-07T02:20:24;101727.06;;;4.23;99.67
34961;BME280;30789;52.030;7.110;2024-03-07T02:22:54;101715.19;;;4.19;99.70
34961;BME280;30789;52.030;7.110;2024-03-07T02:25:21;101718.22;;;4.18;99.37
34961;BME280;30789;52.030;7.110;2024-03-07T02:27:48;101715.81;;;4.16;99.25
34961;BME280;30789;52.030;7.110;2024-03-07T02:30:14;101718.34;;;4.04;99.84
34961;BME280;30789;52.030;7.110;2024-03-07T02:32:45;101717.91;;;4.11;99.63
34961;BME280;30789;52.030;7.110;2024-03-07T02:35:17;101711.31;;;4.12;99.36
34961;BME280;30789;52.030;7.110;2024-03-07T02:37:44;101713.41;;;4.06;98.99
34961;BME280;30789;52.030;7.110;2024-03-07T02:40:13;101718.34;;;4.04;98.86
34961;BME280;30789;52.030;7.110;2024-03-07T02:42:40;101701.81;;;4.01;99.37
34961;BME280;30789;52.030;7.110;2024-03-07T02:45:07;101711.91;;;4.00;99.32
34961;BME280;30789;52.030;7.110;2024-03-07T02:47:35;101707.72;;;3.94;99.56
34961;BME280;30789;52.030;7.110;2024-03-07T02:50:04;101707.56;;;3.91;99.43
34961;BME280;30789;52.030;7.110;2024-03-07T02:52:31;101704.84;;;3.91;99.57
34961;BME280;30789;52.030;7.110;2024-03-07T02:54:58;101712.00;;;3.87;99.25
34961;BME280;30789;52.030;7.110;2024-03-07T02:57:26;101705.28;;;3.84;99.38
34961;BME280;30789;52.030;7.110;2024-03-07T02:59:53;101706.72;;;3.82;99.45
34961;BME280;30789;52.030;7.110;2024-03-07T03:02:19;101704.16;;;3.85;99.13
34961;BME280;30789;52.030;7.110;2024-03-07T03:04:46;101698.03;;;3.80;98.95
34961;BME280;30789;52.030;7.110;2024-03-07T03:07:13;101708.31;;;3.83;98.76
34961;BME280;30789;52.030;7.110;2024-03-07T03:09:39;101701.09;;;3.78;98.84
34961;BME280;30789;52.030;7.110;2024-03-07T03:12:09;101699.78;;;3.76;98.87
34961;BME280;30789;52.030;7.110;2024-03-07T03:14:37;101695.56;;;3.70;98.76
34961;BME280;30789;52.030;7.110;2024-03-07T03:17:05;101691.38;;;3.64;99.07
34961;BME280;30789;52.030;7.110;2024-03-07T03:19:34;101696.84;;;3.64;98.83
34961;BME280;30789;52.030;7.110;2024-03-07T03:22:01;101689.28;;;3.61;98.84
34961;BME280;30789;52.030;7.110;2024-03-07T03:24:28;101692.00;;;3.61;98.62
34961;BME280;30789;52.030;7.110;2024-03-07T03:26:56;101686.88;;;3.59;98.66
34961;BME280;30789;52.030;7.110;2024-03-07T03:29:22;101690.22;;;3.56;98.98
34961;BME280;30789;52.030;7.110;2024-03-07T03:31:50;101684.06;;;3.42;99.14
34961;BME280;30789;52.030;7.110;2024-03-07T03:34:17;101680.97;;;3.35;99.48
34961;BME280;30789;52.030;7.110;2024-03-07T03:36:43;101693.31;;;3.32;99.97
34961;BME280;30789;52.030;7.110;2024-03-07T03:39:10;101692.00;;;3.30;99.79
34961;BME280;30789;52.030;7.110;2024-03-07T03:41:38;101689.13;;;3.26;99.92
34961;BME280;30789;52.030;7.110;2024-03-07T03:44:05;101695.66;;;3.25;99.29
34961;BME280;30789;52.030;7.110;2024-03-07T03:46:32;101694.56;;;3.26;99.70
34961;BME280;30789;52.030;7.110;2024-03-07T03:49:00;101699.31;;;3.21;99.25
34961;BME280;30789;52.030;7.110;2024-03-07T03:51:26;101704.47;;;3.22;99.11
34961;BME280;30789;52.030;7.110;2024-03-07T03:53:53;101698.78;;;3.10;99.53
34961;BME280;30789;52.030;7.110;2024-03-07T03:56:20;101702.72;;;3.04;99.74
34961;BME280;30789;52.030;7.110;2024-03-07T03:58:46;101698.41;;;3.03;99.63
34961;BME280;30789;52.030;7.110;2024-03-07T04:01:13;101696.63;;;2.99;99.71
34961;BME280;30789;52.030;7.110;2024-03-07T04:03:41;101693.31;;;2.88;99.72
34961;BME280;30789;52.030;7.110;2024-03-07T04:06:09;101686.81;;;2.76;99.87
34961;BME280;30789;52.030;7.110;2024-03-07T04:08:36;101684.59;;;2.78;100.00
34961;BME280;30789;52.030;7.110;2024-03-07T04:11:03;101677.66;;;2.72;100.00
34961;BME280;30789;52.030;7.110;2024-03-07T04:13:30;101675.63;;;2.77;99.90
34961;BME280;30789;52.030;7.110;2024-03-07T04:15:57;101677.97;;;2.70;99.43
34961;BME280;30789;52.030;7.110;2024-03-07T04:18:24;101678.56;;;2.67;100.00
34961;BME280;30789;52.030;7.110;2024-03-07T04:20:51;101675.03;;;2.67;100.00
34961;BME280;30789;52.030;7.110;2024-03-07T04:23:20;101679.88;;;2.70;100.00
34961;BME280;30789;52.030;7.110;2024-03-07T04:25:47;101671.69;;;2.70;100.00
34961;BME280;30789;52.030;7.110;2024-03-07T04:28:15;101669.28;;;2.68;99.27
34961;BME280;30789;52.030;7.110;2024-03-07T04:30:41;101679.38;;;2.68;99.75
34961;BME280;30789;52.030;7.110;2024-03-07T04:33:08;101674.25;;;2.66;99.42
34961;BME280;30789;52.030;7.110;2024-03-07T04:35:35;101670.81;;;2.61;99.78
34961;BME280;30789;52.030;7.110;2024-03-07T04:38:02;101666.41;;;2.65;99.44
34961;BME280;30789;52.030;7.110;2024-03-07T04:40:30;101672.00;;;2.68;99.22
34961;BME280;30789;52.030;7.110;2024-03-07T04:42:57;101666.88;;;2.67;99.23
34961;BME280;30789;52.030;7.110;2024-03-07T04:45:23;101662.66;;;2.61;98.89
34961;BME280;30789;52.030;7.110;2024-03-07T04:47:50;101664.28;;;2.62;99.06
34961;BME280;30789;52.030;7.110;2024-03-07T04:50:17;101675.28;;;2.57;99.56
34961;BME280;30789;52.030;7.110;2024-03-07T04:52:43;101669.34;;;2.55;99.08
34961;BME280;30789;52.030;7.110;2024-03-07T04:55:11;101667.75;;;2.54;99.33
34961;BME280;30789;52.030;7.110;2024-03-07T04:57:40;101670.75;;;2.52;99.16
34961;BME280;30789;52.030;7.110;2024-03-07T05:00:07;101680.16;;;2.46;99.32
34961;BME280;30789;52.030;7.110;2024-03-07T05:02:38;101677.34;;;2.38;99.73
34961;BME280;30789;52.030;7.110;2024-03-07T05:05:04;101675.03;;;2.45;99.83
34961;BME280;30789;52.030;7.110;2024-03-07T05:07:31;101675.75;;;2.37;99.52
34961;BME280;30789;52.030;7.110;2024-03-07T05:09:57;101671.13;;;2.37;99.73
34961;BME280;30789;52.030;7.110;2024-03-07T05:12:24;101679.47;;;2.27;99.64
34961;BME280;30789;52.030;7.110;2024-03-07T05:14:52;101677.56;;;2.28;99.72
34961;BME280;30789;52.030;7.110;2024-03-07T05:17:19;101674.38;;;2.12;99.26
34961;BME280;30789;52.030;7.110;2024-03-07T05:19:47;101677.50;;;2.06;99.92
34961;BME280;30789;52.030;7.110;2024-03-07T05:22:15;101675.38;;;2.03;100.00
34961;BME280;30789;52.030;7.110;2024-03-07T05:24:44;101671.25;;;2.05;100.00
34961;BME280;30789;52.030;7.110;2024-03-07T05:27:11;101675.69;;;2.01;99.57
34961;BME280;30789;52.030;7.110;2024-03-07T05:29:38;101669.47;;;2.01;99.89
34961;BME280;30789;52.030;7.110;2024-03-07T05:34:58;101680.63;;;1.86;99.73
34961;BME280;30789;52.030;7.110;2024-03-07T05:37:24;101670.78;;;1.76;99.60
34961;BME280;30789;52.030;7.110;2024-03-07T05:39:52;101674.56;;;1.75;100.00
34961;BME280;30789;52.030;7.110;2024-03-07T05:42:19;101675.91;;;1.77;100.00
34961;BME280;30789;52.030;7.110;2024-03-07T05:44:46;101678.50;;;1.83;100.00
34961;BME280;30789;52.030;7.110;2024-03-07T05:47:13;101675.31;;;1.81;100.00
34961;BME280;30789;52.030;7.110;2024-03-07T05:49:40;101677.00;;;1.76;100.00
34961;BME280;30789;52.030;7.110;2024-03-07T05:52:08;101680.75;;;1.81;100.00
34961;BME280;30789;52.030;7.110;2024-03-07T05:54:35;101681.63;;;1.90;100.00
34961;BME280;30789;52.030;7.110;2024-03-07T05:57:02;101677.19;;;1.80;100.00
34961;BME280;30789;52.030;7.110;2024-03-07T05:59:32;101680.91;;;1.84;100.00
34961;BME280;30789;52.030;7.110;2024-03-07T06:01:59;101680.31;;;1.87;100.00
34961;BME280;30789;52.030;7.110;2024-03-07T06:04:26;101675.59;;;1.93;100.00
34961;BME280;30789;52.030;7.110;2024-03-07T06:06:52;101681.03;;;1.93;100.00
34961;BME280;30789;52.030;7.110;2024-03-07T06:09:21;101676.28;;;1.98;100.00
34961;BME280;30789;52.030;7.110;2024-03-07T06:11:48;101683.66;;;1.98;100.00
34961;BME280;30789;52.030;7.110;2024-03-07T06:14:15;101681.25;;;1.96;100.00
34961;BME280;30789;52.030;7.110;2024-03-07T06:16:42;101680.63;;;1.99;100.00
34961;BME280;30789;52.030;7.110;2024-03-07T06:19:09;101687.38;;;2.02;100.00
34961;BME280;30789;52.030;7.110;2024-03-07T06:21:37;101684.72;;;2.10;100.00
34961;BME280;30789;52.030;7.110;2024-03-07T06:24:06;101681.53;;;2.08;100.00
34961;BME280;30789;52.030;7.110;2024-03-07T06:26:36;101689.56;;;2.13;99.73
34961;BME280;30789;52.030;7.110;2024-03-07T06:29:11;101691.66;;;2.16;99.83
34961;BME280;30789;52.030;7.110;2024-03-07T06:31:42;101684.63;;;2.15;99.74
34961;BME280;30789;52.030;7.110;2024-03-07T06:34:09;101691.19;;;2.14;99.90
34961;BME280;30789;52.030;7.110;2024-03-07T06:36:36;101700.84;;;2.20;99.61
34961;BME280;30789;52.030;7.110;2024-03-07T06:39:03;101691.56;;;2.21;99.96
34961;BME280;30789;52.030;7.110;2024-03-07T06:41:30;101696.59;;;2.28;99.72
34961;BME280;30789;52.030;7.110;2024-03-07T06:43:58;101698.22;;;2.29;99.53
34961;BME280;30789;52.030;7.110;2024-03-07T06:46:25;101702.56;;;2.30;99.22
34961;BME280;30789;52.030;7.110;2024-03-07T06:48:56;101702.88;;;2.28;99.35
34961;BME280;30789;52.030;7.110;2024-03-07T06:51:23;101706.56;;;2.32;99.40
34961;BME280;30789;52.030;7.110;2024-03-07T06:53:53;101704.84;;;2.36;99.24
34961;BME280;30789;52.030;7.110;2024-03-07T06:56:24;101698.78;;;2.39;99.31
34961;BME280;30789;52.030;7.110;2024-03-07T07:53:44;101684.75;;;3.25;96.64
34961;BME280;30789;52.030;7.110;2024-03-07T07:56:19;101685.16;;;3.32;95.92
34961;BME280;30789;52.030;7.110;2024-03-07T07:58:56;101688.53;;;3.38;95.88
34961;BME280;30789;52.030;7.110;2024-03-07T08:03:57;101686.78;;;3.42;95.33
34961;BME280;30789;52.030;7.110;2024-03-07T08:05:10;101692.31;;;3.59;95.85
34961;BME280;30789;52.030;7.110;2024-03-07T08:11:22;101691.53;;;3.59;95.12
34961;BME280;30789;52.030;7.110;2024-03-07T08:13:59;101678.38;;;3.61;95.44
34961;BME280;30789;52.030;7.110;2024-03-07T08:16:33;101680.03;;;3.70;94.57
34961;BME280;30789;52.030;7.110;2024-03-07T08:19:03;101680.56;;;3.81;93.61
34961;BME280;30789;52.030;7.110;2024-03-07T08:21:34;101700.59;;;3.76;94.27
34961;BME280;30789;52.030;7.110;2024-03-07T08:24:03;101696.25;;;3.75;93.58
34961;BME280;30789;52.030;7.110;2024-03-07T08:26:37;101695.53;;;3.92;93.69
34961;BME280;30789;52.030;7.110;2024-03-07T08:29:09;101690.09;;;4.00;93.42
34961;BME280;30789;52.030;7.110;2024-03-07T08:31:39;101698.56;;;3.90;92.69
34961;BME280;30789;52.030;7.110;2024-03-07T08:34:07;101690.56;;;4.02;92.84
34961;BME280;30789;52.030;7.110;2024-03-07T08:36:37;101681.25;;;3.95;93.04
34961;BME280;30789;52.030;7.110;2024-03-07T08:39:08;101692.03;;;4.08;93.08
34961;BME280;30789;52.030;7.110;2024-03-07T08:41:37;101686.72;;;4.03;92.96
34961;BME280;30789;52.030;7.110;2024-03-07T08:44:11;101691.59;;;4.23;92.48
34961;BME280;30789;52.030;7.110;2024-03-07T08:46:47;101686.00;;;4.28;92.07
34961;BME280;30789;52.030;7.110;2024-03-07T08:49:14;101685.03;;;4.33;92.33
34961;BME280;30789;52.030;7.110;2024-03-07T08:51:43;101691.50;;;4.37;92.85
34961;BME280;30789;52.030;7.110;2024-03-07T08:54:09;101683.28;;;4.45;92.56
34961;BME280;30789;52.030;7.110;2024-03-07T08:56:40;101684.25;;;4.41;92.07
34961;BME280;30789;52.030;7.110;2024-03-07T08:59:07;101678.78;;;4.49;92.17
34961;BME280;30789;52.030;7.110;2024-03-07T09:01:41;101677.06;;;4.53;92.03
34961;BME280;30789;52.030;7.110;2024-03-07T09:04:11;101672.25;;;4.67;91.51
34961;BME280;30789;52.030;7.110;2024-03-07T09:06:39;101676.59;;;4.60;90.71
34961;BME280;30789;52.030;7.110;2024-03-07T09:09:06;101675.13;;;4.79;91.06
34961;BME280;30789;52.030;7.110;2024-03-07T09:11:34;101673.69;;;4.73;90.33
34961;BME280;30789;52.030;7.110;2024-03-07T09:14:07;101679.63;;;4.67;90.63
34961;BME280;30789;52.030;7.110;2024-03-07T09:16:40;101674.50;;;4.65;90.51
34961;BME280;30789;52.030;7.110;2024-03-07T09:19:17;101670.63;;;4.58;90.37
34961;BME280;30789;52.030;7.110;2024-03-07T09:21:50;101671.59;;;4.53;91.81
34961;BME280;30789;52.030;7.110;2024-03-07T09:24:22;101669.50;;;4.76;90.94
34961;BME280;30789;52.030;7.110;2024-03-07T09:29:57;101666.94;;;4.88;90.44
34961;BME280;30789;52.030;7.110;2024-03-07T09:32:32;101674.94;;;4.84;91.16
34961;BME280;30789;52.030;7.110;2024-03-07T09:35:04;101660.50;;;4.84;91.45
34961;BME280;30789;52.030;7.110;2024-03-07T09:37:40;101662.75;;;4.99;91.46
34961;BME280;30789;52.030;7.110;2024-03-07T09:40:11;101672.22;;;5.01;90.62
34961;BME280;30789;52.030;7.110;2024-03-07T09:42:43;101663.66;;;5.20;90.78
34961;BME280;30789;52.030;7.110;2024-03-07T09:45:14;101672.69;;;5.20;89.87
34961;BME280;30789;52.030;7.110;2024-03-07T09:47:45;101668.50;;;5.06;90.36
34961;BME280;30789;52.030;7.110;2024-03-07T09:50:21;101659.00;;;5.20;89.71
34961;BME280;30789;52.030;7.110;2024-03-07T09:52:52;101666.38;;;5.37;89.33
34961;BME280;30789;52.030;7.110;2024-03-07T09:55:34;101657.63;;;5.61;89.03
34961;BME280;30789;52.030;7.110;2024-03-07T09:58:02;101662.09;;;5.65;88.58
34961;BME280;30789;52.030;7.110;2024-03-07T10:00:49;101661.41;;;5.77;87.59
34961;BME280;30789;52.030;7.110;2024-03-07T10:03:31;101666.22;;;5.88;87.15
34961;BME280;30789;52.030;7.110;2024-03-07T10:06:24;101663.59;;;5.92;87.55
34961;BME280;30789;52.030;7.110;2024-03-07T10:09:00;101662.50;;;5.93;87.05
34961;BME280;30789;52.030;7.110;2024-03-07T10:11:39;101660.66;;;6.34;86.53
34961;BME280;30789;52.030;7.110;2024-03-07T10:14:22;101651.44;;;6.39;85.47
34961;BME280;30789;52.030;7.110;2024-03-07T10:19:51;101651.56;;;6.83;84.65
34961;BME280;30789;52.030;7.110;2024-03-07T10:23:00;101653.72;;;6.90;84.02
34961;BME280;30789;52.030;7.110;2024-03-07T10:25:50;101651.84;;;7.03;83.77
34961;BME280;30789;52.030;7.110;2024-03-07T10:28:22;101643.28;;;7.04;83.03
34961;BME280;30789;52.030;7.110;2024-03-07T10:31:10;101643.66;;;7.15;83.11
34961;BME280;30789;52.030;7.110;2024-03-07T10:33:45;101636.75;;;7.29;82.75
34961;BME280;30789;52.030;7.110;2024-03-07T10:36:14;101643.91;;;7.66;82.09
34961;BME280;30789;52.030;7.110;2024-03-07T10:38:49;101641.84;;;7.75;80.91
34961;BME280;30789;52.030;7.110;2024-03-07T10:41:24;101641.16;;;7.66;82.22
34961;BME280;30789;52.030;7.110;2024-03-07T10:44:07;101640.13;;;7.59;82.03
34961;BME280;30789;52.030;7.110;2024-03-07T10:46:55;101654.06;;;7.54;81.32
34961;BME280;30789;52.030;7.110;2024-03-07T10:49:36;101642.97;;;7.74;80.58
34961;BME280;30789;52.030;7.110;2024-03-07T10:52:16;101639.91;;;7.88;80.96
34961;BME280;30789;52.030;7.110;2024-03-07T10:55:10;101642.88;;;7.95;81.65
34961;BME280;30789;52.030;7.110;2024-03-07T10:57:49;101640.13;;;7.59;81.42
34961;BME280;30789;52.030;7.110;2024-03-07T11:00:30;101644.47;;;7.96;80.63
34961;BME280;30789;52.030;7.110;2024-03-07T11:03:21;101637.50;;;8.10;80.79
34961;BME280;30789;52.030;7.110;2024-03-07T11:05:50;101639.44;;;7.86;80.84
34961;BME280;30789;52.030;7.110;2024-03-07T11:08:29;101637.94;;;7.88;82.04
34961;BME280;30789;52.030;7.110;2024-03-07T11:11:00;101637.63;;;7.78;81.20
34961;BME280;30789;52.030;7.110;2024-03-07T11:13:29;101644.47;;;7.60;82.10
34961;BME280;30789;52.030;7.110;2024-03-07T11:16:06;101641.25;;;7.46;82.34
34961;BME280;30789;52.030;7.110;2024-03-07T11:18:41;101634.38;;;7.52;83.29
34961;BME280;30789;52.030;7.110;2024-03-07T11:24:30;101627.53;;;7.58;83.23
34961;BME280;30789;52.030;7.110;2024-03-07T11:27:03;101621.03;;;7.62;83.27
34961;BME280;30789;52.030;7.110;2024-03-07T11:29:47;101615.53;;;7.62;82.82
34961;BME280;30789;52.030;7.110;2024-03-07T11:32:20;101610.84;;;7.99;81.87
34961;BME280;30789;52.030;7.110;2024-03-07T11:34:53;101610.84;;;7.99;81.56
34961;BME280;30789;52.030;7.110;2024-03-07T11:37:38;101604.25;;;7.88;82.04
34961;BME280;30789;52.030;7.110;2024-03-07T11:40:46;101596.19;;;8.19;82.62
34961;BME280;30789;52.030;7.110;2024-03-07T11:43:15;101593.09;;;8.20;82.31
34961;BME280;30789;52.030;7.110;2024-03-07T11:46:05;101590.34;;;8.32;82.32
34961;BME280;30789;52.030;7.110;2024-03-07T11:48:41;101591.03;;;8.29;80.50
34961;BME280;30789;52.030;7.110;2024-03-07T11:51:12;101591.16;;;8.21;81.50
34961;BME280;30789;52.030;7.110;2024-03-07T11:53:40;101579.97;;;8.26;81.80
34961;BME280;30789;52.030;7.110;2024-03-07T11:56:16;101579.78;;;8.46;80.75
34961;BME280;30789;52.030;7.110;2024-03-07T11:58:54;101579.22;;;8.41;81.66
34961;BME280;30789;52.030;7.110;2024-03-07T12:01:32;101576.72;;;8.36;81.73
34961;BME280;30789;52.030;7.110;2024-03-07T12:04:11;101574.56;;;8.17;81.95
34961;BME280;30789;52.030;7.110;2024-03-07T12:06:50;101569.06;;;8.17;81.73
34961;BME280;30789;52.030;7.110;2024-03-07T12:09:28;101574.56;;;8.29;81.92
34961;BME280;30789;52.030;7.110;2024-03-07T12:12:06;101561.22;;;8.04;82.06
34961;BME280;30789;52.030;7.110;2024-03-07T12:14:37;101562.38;;;7.67;83.46
34961;BME280;30789;52.030;7.110;2024-03-07T12:17:04;101553.38;;;7.78;83.88
34961;BME280;30789;52.030;7.110;2024-03-07T12:19:45;101554.63;;;7.57;84.25
34961;BME280;30789;52.030;7.110;2024-03-07T12:22:26;101554.38;;;7.50;85.23
34961;BME280;30789;52.030;7.110;2024-03-07T12:25:00;101557.13;;;7.50;86.32
34961;BME280;30789;52.030;7.110;2024-03-07T12:27:31;101547.53;;;7.68;85.40
34961;BME280;30789;52.030;7.110;2024-03-07T12:30:14;101548.91;;;7.74;85.55
34961;BME280;30789;52.030;7.110;2024-03-07T12:32:48;101546.53;;;7.60;85.34
34961;BME280;30789;52.030;7.110;2024-03-07T12:35:18;101540.78;;;7.53;85.59
34961;BME280;30789;52.030;7.110;2024-03-07T12:38:18;101544.53;;;7.73;85.69
34961;BME280;30789;52.030;7.110;2024-03-07T12:41:01;101534.28;;;7.58;85.88
34961;BME280;30789;52.030;7.110;2024-03-07T12:43:39;101531.06;;;7.56;86.12
34961;BME280;30789;52.030;7.110;2024-03-07T12:46:10;101532.00;;;7.60;86.35
34961;BME280;30789;52.030;7.110;2024-03-07T12:48:42;101521.78;;;7.84;85.28
34961;BME280;30789;52.030;7.110;2024-03-07T12:51:13;101512.78;;;8.23;83.70
34961;BME280;30789;52.030;7.110;2024-03-07T12:53:44;101524.97;;;9.90;79.32
34961;BME280;30789;52.030;7.110;2024-03-07T12:56:24;101521.44;;;10.85;72.33
34961;BME280;30789;52.030;7.110;2024-03-07T12:59:05;101517.44;;;11.72;68.57
34961;BME280;30789;52.030;7.110;2024-03-07T13:01:50;101509.63;;;12.37;66.61
34961;BME280;30789;52.030;7.110;2024-03-07T13:04:27;101524.63;;;12.06;66.08
34961;BME280;30789;52.030;7.110;2024-03-07T13:06:57;101520.09;;;10.98;68.52
34961;BME280;30789;52.030;7.110;2024-03-07T13:09:29;101513.72;;;9.79;71.56
34961;BME280;30789;52.030;7.110;2024-03-07T13:12:03;101509.66;;;9.73;73.47
34961;BME280;30789;52.030;7.110;2024-03-07T13:14:35;101510.97;;;10.52;71.62
34961;BME280;30789;52.030;7.110;2024-03-07T13:17:13;101507.69;;;10.66;70.53
34961;BME280;30789;52.030;7.110;2024-03-07T13:20:01;101499.72;;;10.61;70.47
34961;BME280;30789;52.030;7.110;2024-03-07T13:22:47;101500.25;;;10.28;70.05
34961;BME280;30789;52.030;7.110;2024-03-07T13:25:16;101497.63;;;9.31;75.10
34961;BME280;30789;52.030;7.110;2024-03-07T13:28:12;101486.72;;;9.04;76.77
34961;BME280;30789;52.030;7.110;2024-03-07T13:31:20;101484.50;;;9.09;76.27
34961;BME280;30789;52.030;7.110;2024-03-07T13:34:01;101481.94;;;10.01;73.56
34961;BME280;30789;52.030;7.110;2024-03-07T13:36:58;101475.75;;;11.06;69.29
34961;BME280;30789;52.030;7.110;2024-03-07T13:39:28;101478.28;;;11.67;66.84
34961;BME280;30789;52.030;7.110;2024-03-07T13:42:07;101471.84;;;11.33;66.40
34961;BME280;30789;52.030;7.110;2024-03-07T13:44:48;101473.41;;;11.08;67.86
34961;BME280;30789;52.030;7.110;2024-03-07T13:47:27;101465.13;;;10.06;70.57
34961;BME280;30789;52.030;7.110;2024-03-07T13:49:56;101462.97;;;11.21;68.97
34961;BME280;30789;52.030;7.110;2024-03-07T13:52:25;101456.56;;;11.39;67.49
34961;BME280;30789;52.030;7.110;2024-03-07T13:54:54;101456.09;;;12.19;65.22
34961;BME280;30789;52.030;7.110;2024-03-07T13:57:36;101457.19;;;12.11;63.96
34961;BME280;30789;52.030;7.110;2024-03-07T14:00:45;101457.94;;;12.08;65.04
34961;BME280;30789;52.030;7.110;2024-03-07T14:06:42;101451.22;;;9.99;71.31
34961;BME280;30789;52.030;7.110;2024-03-07T14:09:41;101448.13;;;9.31;72.85
34961;BME280;30789;52.030;7.110;2024-03-07T14:12:47;101443.28;;;8.78;74.98
34961;BME280;30789;52.030;7.110;2024-03-07T14:19:40;101435.03;;;8.62;75.70
34961;BME280;30789;52.030;7.110;2024-03-07T14:22:24;101429.19;;;8.80;75.59
34961;BME280;30789;52.030;7.110;2024-03-07T14:25:28;101430.66;;;9.58;73.13
34961;BME280;30789;52.030;7.110;2024-03-07T14:28:26;101434.63;;;9.95;69.74
34961;BME280;30789;52.030;7.110;2024-03-07T14:30:57;101424.16;;;9.66;71.14
34961;BME280;30789;52.030;7.110;2024-03-07T14:33:27;101417.13;;;9.50;71.45
34961;BME280;30789;52.030;7.110;2024-03-07T14:36:01;101420.88;;;9.26;71.49
34961;BME280;30789;52.030;7.110;2024-03-07T14:38:42;101419.38;;;10.39;68.85
34961;BME280;30789;52.030;7.110;2024-03-07T14:41:11;101419.41;;;11.33;64.37